createdAt,value
2022-09-28T00:01:40.996Z,85.79
2022-09-28T00:06:40.025Z,85.90
2022-09-28T00:11:39.552Z,85.99
2022-09-28T00:16:43.731Z,86.14
2022-09-28T00:21:44.842Z,85.99
2022-09-28T00:26:48.368Z,85.68
2022-09-28T00:32:04.218Z,86.57
2022-09-28T00:37:19.456Z,87.84
2022-09-28T00:42:25.538Z,88.73
2022-09-28T00:47:52.230Z,87.37
2022-09-28T00:53:13.121Z,88.02
2022-09-28T00:58:27.568Z,88.16
2022-09-28T01:03:33.754Z,86.82
2022-09-28T01:08:38.250Z,86.69
2022-09-28T01:13:37.718Z,86.97
2022-09-28T01:18:48.912Z,87.57
2022-09-28T01:24:31.343Z,86.97
2022-09-28T01:29:48.336Z,87.45
2022-09-28T01:34:58.992Z,87.32
2022-09-28T01:40:05.664Z,87.41
2022-09-28T01:45:13.051Z,87.41
2022-09-28T01:50:18.642Z,87.51
2022-09-28T01:55:26.981Z,87.85
2022-09-28T02:00:29.746Z,88.28
2022-09-28T02:05:35.484Z,87.84
2022-09-28T02:10:41.008Z,88.10
2022-09-28T02:15:51.732Z,87.63
2022-09-28T02:21:01.154Z,87.63
2022-09-28T02:26:10.858Z,87.62
2022-09-28T02:31:10.443Z,88.31
2022-09-28T02:36:11.269Z,88.84
2022-09-28T02:41:23.708Z,88.97
2022-09-28T02:46:40.618Z,88.99
2022-09-28T02:52:24.062Z,88.90
2022-09-28T02:57:38.965Z,88.81
2022-09-28T03:02:56.621Z,88.97
2022-09-28T03:08:04.330Z,89.12
2022-09-28T03:13:04.770Z,89.15
2022-09-28T03:18:04.969Z,89.36
2022-09-28T03:28:24.557Z,89.57
2022-09-28T03:33:25.110Z,89.66
2022-09-28T03:38:25.452Z,89.95
2022-09-28T03:43:33.064Z,89.90
2022-09-28T03:48:35.496Z,89.88
2022-09-28T03:53:36.510Z,89.86
2022-09-28T03:58:35.926Z,89.80
2022-09-28T04:03:35.185Z,89.78
2022-09-28T04:08:34.227Z,89.80
2022-09-28T04:13:34.234Z,89.82
2022-09-28T04:18:34.658Z,89.82
2022-09-28T04:23:44.138Z,89.83
2022-09-28T04:29:05.479Z,89.32
2022-09-28T04:34:05.620Z,89.74
2022-09-28T04:39:05.112Z,89.38
2022-09-28T04:44:05.757Z,89.62
2022-09-28T04:49:05.740Z,89.22
2022-09-28T04:54:15.986Z,89.70
2022-09-28T04:59:15.261Z,89.32
2022-09-28T05:04:14.560Z,89.44
2022-09-28T05:09:27.103Z,89.62
2022-09-28T05:14:26.419Z,89.29
2022-09-28T05:19:25.160Z,89.67
2022-09-28T05:24:26.068Z,89.73
2022-09-28T05:29:53.388Z,89.75
2022-09-28T05:35:14.956Z,89.58
2022-09-28T05:40:17.507Z,89.95
2022-09-28T05:45:18.347Z,88.98
2022-09-28T05:50:17.667Z,88.80
2022-09-28T05:55:17.239Z,89.22
2022-09-28T06:00:18.952Z,89.38
2022-09-28T06:05:23.555Z,89.11
2022-09-28T06:10:23.607Z,88.97
2022-09-28T06:15:22.702Z,89.20
2022-09-28T06:20:22.161Z,88.66
2022-09-28T06:25:41.939Z,89.22
2022-09-28T06:30:43.467Z,88.64
2022-09-28T06:35:44.885Z,88.32
2022-09-28T06:40:43.514Z,88.61
2022-09-28T06:45:44.934Z,88.84
2022-09-28T06:51:13.238Z,89.31
2022-09-28T06:56:32.538Z,89.56
2022-09-28T07:01:31.621Z,89.48
2022-09-28T07:06:52.852Z,89.32
2022-09-28T07:12:18.279Z,88.86
2022-09-28T07:17:26.119Z,88.51
2022-09-28T07:22:38.027Z,87.99
2022-09-28T07:27:39.804Z,87.86
2022-09-28T07:32:57.748Z,88.09
2022-09-28T07:38:15.348Z,87.62
2022-09-28T07:43:14.431Z,87.61
2022-09-28T07:48:15.382Z,87.12
2022-09-28T07:53:31.024Z,87.06
2022-09-28T07:58:43.721Z,86.74
2022-09-28T08:04:14.835Z,85.41
2022-09-28T08:09:15.792Z,85.02
2022-09-28T08:14:34.825Z,84.17
2022-09-28T08:20:02.239Z,83.32
2022-09-28T08:25:01.309Z,82.44
2022-09-28T08:30:20.109Z,81.70
2022-09-28T08:35:40.374Z,81.83
2022-09-28T08:40:57.820Z,81.86
2022-09-28T08:46:07.340Z,81.63
2022-09-28T08:51:52.102Z,80.64
2022-09-28T08:57:06.855Z,80.36
2022-09-28T09:02:16.129Z,79.51
2022-09-28T09:07:49.958Z,78.91
2022-09-28T09:13:01.981Z,79.29
2022-09-28T09:18:20.023Z,78.41
2022-09-28T09:23:57.509Z,77.21
2022-09-28T09:29:18.985Z,75.96
2022-09-28T09:34:44.077Z,75.34
2022-09-28T09:40:26.354Z,74.86
2022-09-28T09:45:53.767Z,75.09
2022-09-28T09:51:25.026Z,74.59
2022-09-28T09:56:34.760Z,74.79
2022-09-28T10:01:47.459Z,73.95
2022-09-28T10:07:02.771Z,73.41
2022-09-28T10:12:04.386Z,72.50
2022-09-28T10:17:06.563Z,68.44
2022-09-28T10:22:30.846Z,65.87
2022-09-28T10:27:36.820Z,66.07
2022-09-28T10:32:45.096Z,64.61
2022-09-28T10:37:56.666Z,64.31
2022-09-28T10:43:22.933Z,65.03
2022-09-28T10:48:24.913Z,64.12
2022-09-28T10:53:25.621Z,63.29
2022-09-28T10:58:48.352Z,64.74
2022-09-28T11:03:59.839Z,64.73
2022-09-28T11:09:02.051Z,63.55
2022-09-28T11:14:04.183Z,65.02
2022-09-28T11:19:30.799Z,65.54
2022-09-28T11:24:30.289Z,66.24
2022-09-28T11:29:40.064Z,65.71
2022-09-28T11:34:59.889Z,65.97
2022-09-28T11:40:19.902Z,65.78
2022-09-28T11:45:39.316Z,64.35
2022-09-28T11:50:51.160Z,63.84
2022-09-28T11:55:59.471Z,61.95
2022-09-28T12:01:07.054Z,61.71
2022-09-28T12:06:39.051Z,62.14
2022-09-28T12:11:45.444Z,62.39
2022-09-28T12:17:11.896Z,62.95
2022-09-28T12:22:20.780Z,62.27
2022-09-28T12:27:28.407Z,62.71
2022-09-28T12:32:37.631Z,62.18
2022-09-28T12:37:58.735Z,62.26
2022-09-28T12:43:20.397Z,61.86
2022-09-28T12:48:50.008Z,61.32
2022-09-28T12:54:15.838Z,62.67
2022-09-28T12:59:26.734Z,63.02
2022-09-28T13:05:00.646Z,60.70
2022-09-28T13:10:16.848Z,60.68
2022-09-28T13:15:34.351Z,60.77
2022-09-28T13:20:52.754Z,59.71
2022-09-28T13:26:00.952Z,61.70
2022-09-28T13:31:03.216Z,61.27
2022-09-28T13:36:05.698Z,63.46
2022-09-28T13:41:24.838Z,65.01
2022-09-28T13:46:34.712Z,65.97
2022-09-28T13:51:55.631Z,66.70
2022-09-28T13:57:13.463Z,67.45
2022-09-28T14:02:30.480Z,67.78
2022-09-28T14:07:59.673Z,68.46
2022-09-28T14:12:58.741Z,69.05
2022-09-28T14:18:12.527Z,69.41
2022-09-28T14:23:58.940Z,69.77
2022-09-28T14:29:16.694Z,69.49
2022-09-28T14:34:34.535Z,69.00
2022-09-28T14:39:55.646Z,68.37
2022-09-28T14:45:38.594Z,67.46
2022-09-28T14:50:38.266Z,66.72
2022-09-28T14:55:51.260Z,65.95
2022-09-28T15:00:53.862Z,65.37
2022-09-28T15:05:54.085Z,64.98
2022-09-28T15:10:54.908Z,64.79
2022-09-28T15:16:01.052Z,64.17
2022-09-28T15:21:01.729Z,64.27
2022-09-28T15:26:01.272Z,64.73
2022-09-28T15:31:06.865Z,65.04
2022-09-28T15:36:10.995Z,65.19
2022-09-28T15:41:12.142Z,65.58
2022-09-28T15:46:19.363Z,65.79
2022-09-28T15:51:20.102Z,66.09
2022-09-28T15:56:19.212Z,66.37
2022-09-28T16:01:40.006Z,66.54
2022-09-28T16:06:39.017Z,66.76
2022-09-28T16:11:42.295Z,67.16
2022-09-28T16:16:48.095Z,67.48
2022-09-28T16:21:52.739Z,67.87
2022-09-28T16:26:59.432Z,68.26
2022-09-28T16:31:58.671Z,68.60
2022-09-28T16:36:58.376Z,69.01
2022-09-28T16:42:04.019Z,69.33
2022-09-28T16:47:03.204Z,69.63
2022-09-28T16:52:43.115Z,69.88
2022-09-28T16:57:42.660Z,70.27
2022-09-28T17:02:46.824Z,70.81
2022-09-28T17:07:48.282Z,71.01
2022-09-28T17:12:48.208Z,71.32
2022-09-28T17:17:48.109Z,71.71
2022-09-28T17:23:13.823Z,72.24
2022-09-28T17:28:23.119Z,72.51
2022-09-28T17:33:23.764Z,72.74
2022-09-28T17:38:22.907Z,73.02
2022-09-28T17:43:22.722Z,73.24
2022-09-28T17:48:24.502Z,73.38
2022-09-28T17:53:23.078Z,73.59
2022-09-28T17:58:23.777Z,73.85
2022-09-28T18:03:26.416Z,74.36
2022-09-28T18:08:26.059Z,74.98
2022-09-28T18:13:25.407Z,75.39
2022-09-28T18:18:28.983Z,75.90
2022-09-28T18:23:30.186Z,76.44
2022-09-28T18:28:29.705Z,77.13
2022-09-28T18:33:43.101Z,78.09
2022-09-28T18:38:43.160Z,78.59
2022-09-28T18:43:43.390Z,78.72
2022-09-28T18:48:44.145Z,81.43
2022-09-28T18:53:44.277Z,82.14
2022-09-28T18:58:45.595Z,82.38
2022-09-28T19:03:44.550Z,82.25
2022-09-28T19:08:44.215Z,83.75
2022-09-28T19:13:45.332Z,83.91
2022-09-28T19:18:46.253Z,84.21
2022-09-28T19:23:49.818Z,83.82
2022-09-28T19:28:50.371Z,83.47
2022-09-28T19:33:49.586Z,82.76
2022-09-28T19:38:50.349Z,82.77
2022-09-28T19:43:50.650Z,82.97
2022-09-28T19:48:50.213Z,83.17
2022-09-28T19:53:50.340Z,83.19
2022-09-28T19:58:50.037Z,83.14
2022-09-28T20:03:51.539Z,83.09
2022-09-28T20:08:51.299Z,83.17
2022-09-28T20:13:51.060Z,83.28
2022-09-28T20:18:51.545Z,83.32
2022-09-28T20:23:51.988Z,83.38
2022-09-28T20:28:51.301Z,83.40
2022-09-28T20:33:51.336Z,83.37
2022-09-28T20:38:53.717Z,83.43
2022-09-28T20:44:04.851Z,83.43
2022-09-28T20:49:08.064Z,83.50
2022-09-28T20:54:08.561Z,83.58
2022-09-28T20:59:11.558Z,83.63
2022-09-28T21:04:14.002Z,83.82
2022-09-28T21:09:14.330Z,83.90
2022-09-28T21:14:13.938Z,83.85
2022-09-28T21:19:13.583Z,83.88
2022-09-28T21:24:14.369Z,83.96
2022-09-28T21:29:17.924Z,84.07
2022-09-28T21:34:20.291Z,84.14
2022-09-28T21:39:20.624Z,84.22
2022-09-28T21:44:20.138Z,84.31
2022-09-28T21:49:19.986Z,84.42
2022-09-28T21:54:20.059Z,84.58
2022-09-28T21:59:22.508Z,84.69
2022-09-28T22:04:21.890Z,84.80
2022-09-28T22:09:21.672Z,84.89
2022-09-28T22:14:21.250Z,85.00
2022-09-28T22:19:20.693Z,85.12
2022-09-28T22:24:20.087Z,85.20
2022-09-28T22:29:21.898Z,85.27
2022-09-28T22:34:23.538Z,85.43
2022-09-28T22:39:23.241Z,85.57
2022-09-28T22:44:23.456Z,85.53
2022-09-28T22:49:25.057Z,85.68
2022-09-28T22:54:24.678Z,85.76
2022-09-28T22:59:25.152Z,85.77
2022-09-28T23:04:25.292Z,85.83
2022-09-28T23:09:25.088Z,85.95
2022-09-28T23:14:25.411Z,86.06
2022-09-28T23:19:24.898Z,86.10
2022-09-28T23:24:24.529Z,86.13
2022-09-28T23:29:24.356Z,86.30
2022-09-28T23:34:24.004Z,86.63
2022-09-28T23:39:24.485Z,86.98
2022-09-28T23:44:24.087Z,87.60
2022-09-28T23:49:24.261Z,88.36
2022-09-28T23:54:24.454Z,88.72
2022-09-28T23:59:23.624Z,88.87
